Flight Track Log - Related Links

Times and Time Zones

All times are in EDT time to prevent confusion due to time zone crossing. See the N502QS flight status page for this flight to view local times or setup timezone preferences in your user account.

Time Position Orientation Groundspeed Altitude Reporting Facility
EDT Latitude Longitude Course Direction KTS MPH feet Rate Location/Type
Tue 04:57:42 PM 41.0333 -73.7333 288° West 220 253 3,100  Level New York TRACON
Tue 04:58:36 PM 41.0500 -73.8000 288° West 231 266 5,600 3,421 Climbing New York TRACON
Tue 04:59:36 PM 41.0000 -73.8833 232° Southwest 268 308 9,600 3,250 Climbing New York TRACON
Tue 05:00:36 PM 40.9333 -73.9333 210° Southwest 330 380 12,100 1,263 Climbing New York TRACON
Tue 05:01:30 PM 40.8500 -73.9833 204° Southwest 347 399 12,000 -50 Descending New York TRACON
Tue 05:02:36 PM 40.7500 -74.0500 207° Southwest 350 403 12,000  Level New York TRACON
Tue 05:03:36 PM 40.6667 -74.1000 204° Southwest 365 420 12,000 1,574 Level New York TRACON
Tue 05:05:39 PM 40.4486 -74.1475 189° South 394 453 16,800 2,262 Climbing New York Center
Tue 05:06:39 PM 40.3481 -74.1722 191° South 380 437 18,900 2,013 Climbing New York Center
Tue 05:08:14 PM 40.1892 -74.2419 199° South 375 432 22,000 1,647 Climbing Washington Center
Tue 05:09:12 PM 40.0986 -74.3331 218° Southwest 393 452 23,100 1,613 Climbing Washington Center
Tue 05:10:13 PM 40.0036 -74.4294 218° Southwest 421 484 25,200 2,311 Climbing Washington Center
Tue 05:11:14 PM 39.9047 -74.5258 217° Southwest 444 511 27,800 2,521 Climbing Washington Center
Tue 05:12:12 PM 39.7972 -74.6300 217° Southwest 466 536 30,200 2,168 Climbing Washington Center
Tue 05:13:13 PM 39.6875 -74.7367 217° Southwest 485 558 32,100 2,231 Climbing Washington Center
Tue 05:14:13 PM 39.5778 -74.8403 216° Southwest 493 567 34,700 2,727 Climbing Washington Center
Tue 05:15:14 PM 39.4764 -74.9408 217° Southwest 482 555 37,600 2,471 Climbing Washington Center
Tue 05:16:12 PM 39.3725 -75.0439 217° Southwest 482 555 39,600 1,881 Climbing Washington Center
Tue 05:17:12 PM 39.2606 -75.1278 210° Southwest 482 555 41,300 1,686 Climbing Washington Center
Tue 05:18:13 PM 39.1336 -75.1822 198° South 482 555 43,000 836 Climbing Washington Center
Tue 05:19:14 PM 39.0211 -75.2336 200° South 487 560 43,000  Level Washington Center
Tue 05:20:14 PM 38.8733 -75.2903 197° South 495 570 43,000  Level Washington Center
Tue 05:21:15 PM 38.7567 -75.3442 200° South 500 575 43,000 -51 Level Washington Center
Tue 05:22:12 PM 38.6253 -75.3950 197° South 505 581 42,900  Descending Washington Center
Tue 05:23:13 PM 38.4942 -75.4564 200° South 500 575 43,000 49 Climbing Washington Center
Tue 05:24:14 PM 38.3692 -75.5281 204° Southwest 500 575 43,000 496 Level Washington Center
Tue 05:25:14 PM 38.2439 -75.5917 202° Southwest 495 570 44,000 1,017 Climbing Washington Center
Tue 05:26:12 PM 38.1189 -75.6578 203° Southwest 490 564 45,000 504 Climbing Washington Center
Tue 05:27:13 PM 38.0042 -75.7261 205° Southwest 485 558 45,000  Level Washington Center
Tue 05:28:13 PM 37.8831 -75.7892 202° Southwest 477 549 45,000 200 Level Washington Center
Tue 05:29:13 PM 37.7642 -75.8519 203° Southwest 472 543 45,400 496 Climbing Washington Center
Tue 05:30:14 PM 37.6472 -75.9092 201° Southwest 472 543 46,000 595 Climbing Washington Center
Tue 05:31:14 PM 37.5261 -75.9767 204° Southwest 472 543 46,600 508 Climbing Washington Center
Tue 05:32:12 PM 37.4069 -76.0364 202° Southwest 467 537 47,000 203 Climbing Washington Center
Tue 05:33:12 PM 37.2878 -76.1008 203° Southwest 467 537 47,000  Level Washington Center
Tue 05:34:13 PM 37.1622 -76.1575 200° South 474 545 47,000  Level Washington Center
Tue 05:35:14 PM 37.0389 -76.2189 202° Southwest 474 545 47,000  Level Washington Center
Tue 05:36:12 PM 36.9175 -76.2856 204° Southwest 479 551 47,000  Level Washington Center
Tue 05:37:13 PM 36.7794 -76.3542 202° Southwest 479 551 47,000  Level Washington Center
Tue 05:38:14 PM 36.6581 -76.4256 205° Southwest 479 551 47,000  Level Washington Center
Tue 05:39:12 PM 36.5325 -76.4864 201° Southwest 479 551 47,000  Level Washington Center
Tue 05:40:12 PM 36.4067 -76.5469 201° Southwest 479 551 47,000  Level Washington Center
Tue 05:41:13 PM 36.2831 -76.6097 202° Southwest 479 551 47,000  Level Washington Center
Tue 05:42:14 PM 36.1594 -76.6700 201° Southwest 479 551 47,000  Level Washington Center
Tue 05:43:14 PM 36.0317 -76.7350 202° Southwest 479 551 47,000  Level Washington Center
Tue 05:44:12 PM 35.9081 -76.7972 202° Southwest 479 551 47,000  Level Washington Center
Tue 05:45:13 PM 35.7781 -76.8619 202° Southwest 486 559 47,000  Level Washington Center
Tue 05:46:14 PM 35.6500 -76.9211 201° Southwest 497 572 47,000  Level Washington Center
Tue 05:47:12 PM 35.5261 -76.9856 203° Southwest 497 572 47,000  Level Washington Center
Tue 05:48:12 PM 35.3961 -77.0469 201° Southwest 497 572 47,000  Level Washington Center
Tue 05:49:13 PM 35.2681 -77.1133 203° Southwest 497 572 47,000  Level Washington Center
Tue 05:50:13 PM 35.1358 -77.1744 201° Southwest 504 580 47,000  Level Washington Center
Tue 05:51:13 PM 35.0075 -77.2403 203° Southwest 504 580 47,000  Level Washington Center
Tue 05:52:14 PM 34.8794 -77.3011 201° Southwest 499 574 47,000  Level Washington Center
Tue 05:53:12 PM 34.7533 -77.3667 203° Southwest 493 567 47,000  Level Washington Center
Tue 05:54:13 PM 34.6250 -77.4294 202° Southwest 493 567 47,000 -49 Level Washington Center
Tue 05:55:14 PM 34.4886 -77.4767 196° South 504 580 46,900  Descending Washington Center
Tue 05:56:15 PM 34.3544 -77.5239 196° South 504 580 47,000 29 Climbing Washington Center
Tue 05:58:41 PM 34.0225 -77.6236 194° South 537 618 47,000  Level Jacksonville Center
Tue 05:59:41 PM 33.8869 -77.6694 196° South 526 605 47,000  Level Jacksonville Center
Tue 06:00:41 PM 33.7469 -77.7200 197° South 521 600 47,000  Level Jacksonville Center
Tue 06:01:41 PM 33.5986 -77.7636 194° South 516 594 47,000  Level Jacksonville Center
Tue 06:02:41 PM 33.4583 -77.8067 194° South 511 588 47,000  Level Jacksonville Center
Tue 06:03:41 PM 33.3225 -77.8492 195° South 511 588 47,000  Level Jacksonville Center
Tue 06:04:41 PM 33.1844 -77.8917 194° South 511 588 47,000  Level Jacksonville Center
Tue 06:05:41 PM 33.0483 -77.9342 195° South 506 582 47,000  Level Jacksonville Center
Tue 06:06:41 PM 32.9122 -77.9761 195° South 506 582 47,000  Level Jacksonville Center
Tue 06:07:41 PM 32.7761 -78.0206 195° South 506 582 47,000  Level Jacksonville Center
Tue 06:08:41 PM 32.6381 -78.0675 196° South 506 582 47,000  Level Jacksonville Center
Tue 06:09:41 PM 32.4997 -78.1069 194° South 506 582 47,000  Level Jacksonville Center
Tue 06:10:41 PM 32.3636 -78.1486 194° South 506 582 47,000  Level Jacksonville Center
Tue 06:11:41 PM 32.2294 -78.1897 195° South 506 582 47,000  Level Jacksonville Center
Tue 06:12:41 PM 32.0911 -78.2289 193° South 506 582 47,000  Level Jacksonville Center
Tue 06:13:41 PM 31.9553 -78.2797 198° South 506 582 47,000  Level Jacksonville Center
Tue 06:14:41 PM 31.8231 -78.3206 195° South 506 582 47,000  Level Jacksonville Center
Tue 06:15:41 PM 31.6889 -78.3614 195° South 512 589 47,000  Level Jacksonville Center
Tue 06:16:41 PM 31.5467 -78.4097 196° South 507 583 47,000  Level Jacksonville Center
Tue 06:17:41 PM 31.4103 -78.4503 194° South 509 586 47,000  Level Jacksonville Center
Tue 06:18:41 PM 31.2742 -78.4958 196° South 501 577 47,000  Level Jacksonville Center
Tue 06:19:40 PM 31.1356 -78.5386 195° South 514 592 47,000  Level Jacksonville Center
Tue 06:20:41 PM 30.9953 -78.5864 196° South 514 592 47,000  Level Jacksonville Center
Tue 06:21:41 PM 30.8711 -78.6186 193° South 514 592 47,000  Level Jacksonville Center
Tue 06:22:41 PM 30.7350 -78.6633 196° South 514 592 47,000  Level Jacksonville Center
Tue 06:23:41 PM 30.6006 -78.7081 196° South 514 592 47,000  Level Jacksonville Center
Tue 06:24:37 PM 30.4761 -78.7542 198° South 506 582 47,000  Level Miami Center
Tue 06:25:37 PM 30.3400 -78.8022 197° South 506 582 47,000  Level Miami Center
Tue 06:26:37 PM 30.1997 -78.8503 196° South 511 588 47,000  Level Miami Center
Tue 06:27:37 PM 30.0636 -78.9003 198° South 516 594 47,000  Level Miami Center
Tue 06:28:37 PM 29.9336 -78.9506 199° South 516 594 47,000  Level Miami Center
Tue 06:29:37 PM 29.7953 -78.9981 197° South 516 594 47,000  Level Miami Center
Tue 06:30:37 PM 29.6592 -79.0311 192° South 516 594 47,000  Level Miami Center
Tue 06:31:37 PM 29.5086 -79.0497 186° South 523 602 47,000 -300 Level Miami Center
Tue 06:32:37 PM 29.3622 -79.0778 189° South 529 609 46,400 -1,450 Descending Miami Center
Tue 06:33:37 PM 29.2181 -79.1033 189° South 529 609 44,100 -2,350 Descending Miami Center
Tue 06:34:37 PM 29.0756 -79.1314 190° South 524 603 41,700 -2,450 Descending Miami Center
Tue 06:35:37 PM 28.9272 -79.1567 188° South 524 603 39,200 -2,500 Descending Miami Center
Tue 06:36:37 PM 28.7806 -79.1819 189° South 529 609 36,700 -2,550 Descending Miami Center
Tue 06:37:37 PM 28.6361 -79.2075 189° South 529 609 34,100 -2,550 Descending Miami Center
Tue 06:38:37 PM 28.4939 -79.2328 189° South 524 603 31,600 -2,400 Descending Miami Center
Tue 06:39:37 PM 28.3411 -79.2625 190° South 519 597 29,300 -2,250 Descending Miami Center
Tue 06:40:37 PM 28.2147 -79.3189 201° Southwest 500 575 27,100 -2,150 Descending Miami Center
Tue 06:41:37 PM 28.0969 -79.3822 205° Southwest 484 557 25,000 -2,100 Descending Miami Center
Tue 06:42:37 PM 27.9811 -79.4408 204° Southwest 470 541 22,900 -2,050 Descending Miami Center
Tue 06:43:37 PM 27.8714 -79.4994 205° Southwest 454 522 20,900 -1,950 Descending Miami Center
Tue 06:44:37 PM 27.7703 -79.5533 205° Southwest 425 489 19,000 -1,850 Descending Miami Center
Tue 06:45:37 PM 27.6689 -79.6050 204° Southwest 410 472 17,200 -1,750 Descending Miami Center
Tue 06:46:37 PM 27.5742 -79.6542 205° Southwest 405 466 15,500 -1,700 Descending Miami Center
Tue 06:47:37 PM 27.4792 -79.7033 205° Southwest 397 457 13,800 -1,750 Descending Miami Center
Tue 06:48:37 PM 27.3778 -79.7547 204° Southwest 374 430 12,000 -1,550 Descending Miami Center
Tue 06:49:37 PM 27.2997 -79.7947 204° Southwest 334 384 10,700 -1,300 Descending Miami Center
Tue 06:50:37 PM 27.2239 -79.8347 205° Southwest 309 356 9,400 -1,200 Descending Miami Center
Tue 06:51:37 PM 27.1606 -79.8658 204° Southwest 297 342 8,300 -1,200 Descending Miami Center
Tue 06:52:37 PM 27.0867 -79.9061 206° Southwest 297 342 7,000 -1,500 Descending Miami Center
Tue 06:53:37 PM 27.0106 -79.9483 206° Southwest 291 335 5,300 -1,500 Descending Miami Center
Tue 06:54:37 PM 26.9428 -79.9931 210° Southwest 286 329 4,000 -650 Descending Miami Center
Tue 06:55:37 PM 26.8875 -80.0406 217° Southwest 276 318 4,000 -500 Level Miami Center
Tue 06:56:37 PM 26.8528 -80.0931 233° Southwest 245 282 3,000 -1,000 Descending Miami Center
Tue 06:58:00 PM 26.7911 -80.2417 265° West  Level FlightAware Approximate
Tue 07:05:00 PM 26.6832 -80.0956 110° East  Level Estimated
Tue 07:06:00 PM 26.6832 -80.0956 110° East  Level Estimated
Tue 07:07:00 PM 26.6832 -80.0956 110° East  Level Estimated
Tue 07:08:00 PM 26.6832 -80.0956 110° East  Level Estimated
Tue 07:09:00 PM 26.6832 -80.0956 110° East  Level Estimated
Tue 07:10:00 PM 26.6832 -80.0956 110° East  Level Estimated
Tue 07:11:00 PM 26.6832 -80.0956 110° East  Level Estimated

Login

Don't have an account? Register now (free) for customized features, flight alerts, and more!